Terminal Aerodrome Forecast
Issued by NWS Shreveport, LA

Home | Current Version | Previous Version | Text Only | Print | Product List | Glossary On
Versions: 1 2 3 4 5 6 7 8 9 10 11 12 13 14 15 16 17 18 19 20 21 22 23 24 25 26 27 28 29 30 31
631
FTUS44 KSHV 172145 AAB
TAFTXK
TAF AMD
KTXK 172145Z 1722/1818 29006KT P6SM OVC011
     FM180300 01005KT P6SM BKN015 BKN025 OVC250
     FM180500 05003KT P6SM SCT030 BKN250
      TEMPO 1808/1810 6SM BR BKN010 OVC020
     FM181000 08004KT 4SM BR OVC007
     FM181500 11009KT P6SM OVC025=

USA.gov is the U.S. government's official web portal to all federal, state and local government web resources and services.